Hay River Airport
CYHY : now visible

Airfield :











YOU CAN JOIN US ON...

 
LOGIN :

Register | Disclaimer

   EN    FR    IT 

 









Legend :    VFR   Marginal VFR   IFR   Intensive IFR   Very Intensive IFR
Visi :
Ceiling :
>= 8 km
>= 3000ft
5 to 8 km
1000 to 3000 ft
1500m to 5 km
500 to 1000 ft
800 to 1500m
200 to 500 ft
< 800m
< 200 ft
Symbols :   Thunderstorms  Fog  Heavy snow  Heavy precipitations  Wind > 20 kt






- Airport Elevation : 543 ft
- IATA code : YHY


CYHY - Hay River

CURRENT METAR :
  • 070100Z 15013G19KT 15SM FEW050 SCT230 M01/M09 A2953 RMK SC1CI3 SLP016

EXPIRED METARs :
  • 070000Z 14013KT 15SM FEW049 BKN240 00/M08 A2953 RMK SC2CI4 SLP016
  • 062300Z 13013G20KT 15SM FEW037 BKN240 M00/M08 A2954 RMK SC2CI3 CF ASOCTD SLP017

TAF TAF CYHY
Valid from the 07 at 00:00 until the 07 at 12:00 UTC


062338Z 0700/0712 14010G20KT P6SM FEW040 BKN240
TEMPO 0700/0712 P6SM -SN BKN040
BECMG 0706/0708 12006KT RMK NXT FCST BY 070600Z



MET'MAP, your aeronautical weather chart ! - Copyright ORBIFLY December 2007 - Disclaimer

ORBIFLY MET'MAP TEAM :

Programming & Development : Alexandra Zaïnal
Concept & original design : Baudouin d'Aumeries
Assistance for programming : Marc-Olivier Méhu
Technical & hardware support : Manuel Goepfert

Contact : metmap@orbifly.com




SOURCES & CREDITS :

   NOAA       Earth
Advisory